Time;durP1;ratioP1;P1;durP2;ratioP2;P2;SDS_P1;SDS_P2;PMS_P1;PMS_P2;Temp;Humidity;BMP_temperature;BMP_pressure;BME280_temperature;BME280_humidity;BME280_pressure;Samples;Min_cycle;Max_cycle;Signal;HPM_P1;HPM_P2
2022/05/06 00:01:14;;;;;;;14.60;5.10;;;;;9.30;98074.20;;;;111091;1249;41174;-69
2022/05/06 00:03:43;;;;;;;12.60;5.20;;;;;9.22;98079.20;;;;110882;1251;41381;-68
2022/05/06 00:06:13;;;;;;;11.90;5.40;;;;;9.26;98080.80;;;;110787;1250;41284;-67
2022/05/06 00:08:43;;;;;;;9.40;4.60;;;;;9.20;98078.60;;;;110910;1250;41245;-70
2022/05/06 00:11:15;;;;;;;10.30;4.60;;;;;9.20;98081.60;;;;110878;1250;41608;-70
2022/05/06 00:13:45;;;;;;;;;;;;;9.20;98088.80;;;;110828;1250;41184;-68
2022/05/06 00:16:18;;;;;;;12.20;4.80;;;;;9.10;98087.20;;;;111123;1248;41594;-68
2022/05/06 00:18:49;;;;;;;13.60;6.90;;;;;9.10;98096.40;;;;111022;1250;41143;-68
2022/05/06 00:21:20;;;;;;;14.00;6.60;;;;;9.10;98093.40;;;;111070;1250;41804;-69
2022/05/06 00:23:49;;;;;;;15.40;7.30;;;;;9.10;98097.60;;;;111084;1250;41159;-67
2022/05/06 00:26:19;;;;;;;11.20;6.10;;;;;9.00;98099.00;;;;111143;1250;41165;-68
2022/05/06 00:28:48;;;;;;;10.40;4.80;;;;;9.00;98094.20;;;;110996;1250;41267;-68
2022/05/06 00:31:18;;;;;;;10.70;5.40;;;;;8.90;98096.60;;;;110870;1250;41661;-68
2022/05/06 00:33:49;;;;;;;12.40;5.80;;;;;8.90;98094.40;;;;110934;1250;41144;-69
2022/05/06 00:36:18;;;;;;;12.90;6.10;;;;;8.88;98089.60;;;;110885;1250;41624;-69
2022/05/06 00:38:48;;;;;;;10.20;5.10;;;;;8.86;98097.80;;;;110997;1250;41148;-68
2022/05/06 00:41:19;;;;;;;;;;;;;8.80;98096.80;;;;110888;1250;41139;-69
2022/05/06 00:43:50;;;;;;;10.40;4.30;;;;;8.80;98097.40;;;;110836;1250;41253;-69
2022/05/06 00:46:24;;;;;;;9.30;4.20;;;;;8.70;98100.60;;;;110883;1250;41724;-69
2022/05/06 00:48:57;;;;;;;11.00;5.40;;;;;8.70;98107.00;;;;110857;1250;41152;-69
2022/05/06 00:51:27;;;;;;;12.40;6.40;;;;;8.70;98106.80;;;;110769;1251;41143;-68
2022/05/06 00:53:57;;;;;;;;;;;;;8.70;98117.20;;;;110900;1250;41205;-69
2022/05/06 00:56:27;;;;;;;11.10;5.70;;;;;8.60;98115.00;;;;111187;1249;41263;-69
2022/05/06 00:58:57;;;;;;;12.70;5.20;;;;;8.60;98116.20;;;;110904;1250;41613;-69
2022/05/06 01:01:26;;;;;;;9.60;4.90;;;;;8.52;98113.00;;;;110871;1250;42514;-69
2022/05/06 01:03:56;;;;;;;12.00;5.50;;;;;8.50;98114.80;;;;110901;1250;41261;-68
2022/05/06 01:06:27;;;;;;;11.70;5.50;;;;;8.50;98115.40;;;;110829;1251;41157;-69
2022/05/06 01:08:57;;;;;;;12.00;5.90;;;;;8.50;98114.60;;;;110852;1251;40883;-69
2022/05/06 01:11:28;;;;;;;11.00;6.00;;;;;8.50;98109.60;;;;110760;1250;41868;-68
2022/05/06 01:13:58;;;;;;;14.00;6.20;;;;;8.40;98112.00;;;;110875;1250;41127;-68
2022/05/06 01:16:35;;;;;;;12.90;5.50;;;;;8.36;98113.40;;;;110589;1252;41156;-69
2022/05/06 01:19:09;;;;;;;12.60;4.90;;;;;8.30;98103.20;;;;111093;1250;41339;-68
2022/05/06 01:21:47;;;;;;;11.10;5.10;;;;;8.30;98098.40;;;;110865;1250;41149;-69
2022/05/06 01:24:16;;;;;;;12.50;5.50;;;;;8.30;98098.60;;;;110843;1250;41887;-65
2022/05/06 01:26:55;;;;;;;10.50;4.80;;;;;8.28;98095.80;;;;110973;1250;41149;-68
2022/05/06 01:29:27;;;;;;;11.10;5.50;;;;;8.24;98094.00;;;;111102;1248;41403;-69
2022/05/06 01:32:00;;;;;;;9.80;4.70;;;;;8.20;98093.40;;;;111012;1250;41137;-68
2022/05/06 01:34:32;;;;;;;12.60;5.90;;;;;8.20;98090.80;;;;110964;1250;41149;-68
2022/05/06 01:37:04;;;;;;;12.70;6.00;;;;;8.10;98091.20;;;;110847;1251;41602;-68
2022/05/06 01:39:35;;;;;;;13.20;5.60;;;;;8.00;98091.60;;;;111073;1249;41257;-69
2022/05/06 01:42:12;;;;;;;12.00;5.70;;;;;8.00;98093.60;;;;110966;1250;41154;-68
2022/05/06 01:44:51;;;;;;;10.50;5.00;;;;;8.00;98090.40;;;;110822;1250;41270;-69
2022/05/06 01:47:26;;;;;;;10.60;5.10;;;;;7.98;98088.80;;;;110892;1250;41582;-68
2022/05/06 01:50:03;;;;;;;9.90;5.00;;;;;8.00;98089.80;;;;111119;1250;41545;-68
2022/05/06 01:52:39;;;;;;;9.30;5.10;;;;;7.96;98083.80;;;;110881;1250;42498;-67
2022/05/06 01:55:12;;;;;;;10.70;5.70;;;;;7.98;98081.40;;;;110899;1250;41596;-68
2022/05/06 01:58:04;;;;;;;10.70;5.80;;;;;7.96;98080.20;;;;110800;1253;41261;-68
2022/05/06 02:00:40;;;;;;;11.70;5.80;;;;;7.92;98077.40;;;;110893;1250;41349;-68
2022/05/06 02:06:04;;;;;;;11.50;5.00;;;;;7.90;98088.40;;;;110898;1253;41144;-68
2022/05/06 02:08:39;;;;;;;12.50;5.40;;;;;7.90;98086.40;;;;110790;1250;41157;-67
2022/05/06 02:11:17;;;;;;;12.70;5.60;;;;;7.90;98087.00;;;;111169;1250;41251;-68
2022/05/06 02:13:47;;;;;;;10.90;5.90;;;;;7.90;98087.40;;;;110787;1250;42015;-68
2022/05/06 02:16:41;;;;;;;12.10;5.40;;;;;8.00;98086.00;;;;110633;1251;41624;-69
2022/05/06 02:19:26;;;;;;;11.70;4.90;;;;;8.00;98088.40;;;;110817;1250;41268;-66
2022/05/06 02:22:16;;;;;;;9.80;4.80;;;;;8.00;98087.20;;;;110799;1250;41159;-69
2022/05/06 02:25:13;;;;;;;11.00;4.80;;;;;8.00;98084.80;;;;110853;1249;41511;-69
2022/05/06 02:27:50;;;;;;;14.50;5.60;;;;;8.00;98087.60;;;;110986;1250;41467;-69
2022/05/06 02:33:15;;;;;;;13.20;4.30;;;;;7.90;98090.20;;;;110983;1250;41250;-69
2022/05/06 02:35:51;;;;;;;8.90;4.20;;;;;7.86;98092.00;;;;110748;1251;41185;-69
2022/05/06 02:38:28;;;;;;;8.90;4.00;;;;;7.82;98087.00;;;;110911;1250;41907;-68
2022/05/06 02:40:59;;;;;;;10.90;4.80;;;;;7.80;98091.80;;;;110881;1250;41140;-69
2022/05/06 02:43:37;;;;;;;9.50;4.40;;;;;7.80;98092.40;;;;110764;1251;40732;-68
2022/05/06 02:46:08;;;;;;;8.80;3.90;;;;;7.80;98097.00;;;;110784;1250;41155;-68
2022/05/06 02:48:38;;;;;;;;;;;;;7.80;98100.20;;;;110863;1250;42464;-68
2022/05/06 02:51:13;;;;;;;9.60;4.40;;;;;7.80;98100.00;;;;110740;1253;41600;-70
2022/05/06 02:53:49;;;;;;;8.60;3.90;;;;;7.80;98095.80;;;;110620;1253;41597;-70
2022/05/06 02:56:26;;;;;;;10.80;4.50;;;;;7.80;98099.00;;;;110781;1250;40874;-70
2022/05/06 02:59:01;;;;;;;10.90;5.40;;;;;7.80;98100.00;;;;110849;1250;41273;-69
2022/05/06 03:01:35;;;;;;;10.90;5.10;;;;;7.80;98103.20;;;;110722;1251;41176;-70
2022/05/06 03:04:12;;;;;;;12.00;5.80;;;;;7.70;98108.40;;;;110743;1253;41151;-70
2022/05/06 03:06:45;;;;;;;9.80;4.70;;;;;7.70;98108.00;;;;110931;1251;42469;-69
2022/05/06 03:09:33;;;;;;;9.30;4.50;;;;;7.70;98112.40;;;;110756;1253;41274;-69
2022/05/06 03:12:05;;;;;;;13.60;5.70;;;;;7.70;98110.60;;;;110750;1251;41267;-70
2022/05/06 03:14:37;;;;;;;9.60;5.00;;;;;7.70;98105.00;;;;110873;1251;41248;-69
2022/05/06 03:17:27;;;;;;;11.50;5.00;;;;;7.70;98106.60;;;;110954;1250;41938;-69
2022/05/06 03:20:07;;;;;;;10.80;5.10;;;;;7.74;98108.20;;;;110907;1251;41187;-69
2022/05/06 03:22:54;;;;;;;13.90;6.90;;;;;7.80;98105.80;;;;110909;1250;42177;-68
2022/05/06 03:25:27;;;;;;;17.00;7.80;;;;;7.80;98106.40;;;;110766;1250;41159;-68
2022/05/06 03:28:00;;;;;;;14.70;7.30;;;;;7.80;98108.40;;;;110693;1253;41263;-70
2022/05/06 03:30:31;;;;;;;13.50;6.50;;;;;7.80;98114.80;;;;111000;1250;41326;-69
2022/05/06 03:33:16;;;;;;;11.50;5.40;;;;;7.80;98113.20;;;;110928;1250;41653;-69
2022/05/06 03:35:46;;;;;;;11.20;5.20;;;;;7.80;98116.80;;;;110994;1250;41156;-68
2022/05/06 03:38:16;;;;;;;10.90;4.60;;;;;7.88;98122.00;;;;110869;1251;41723;-68
2022/05/06 03:40:48;;;;;;;11.00;5.10;;;;;7.90;98126.00;;;;110927;1250;41261;-68
2022/05/06 03:43:24;;;;;;;9.90;4.90;;;;;7.98;98130.80;;;;110885;1250;41260;-68
2022/05/06 03:45:56;;;;;;;10.80;4.60;;;;;8.00;98132.80;;;;110944;1250;41427;-67
2022/05/06 03:48:29;;;;;;;10.70;5.40;;;;;8.00;98135.20;;;;110797;1252;41204;-70
2022/05/06 03:51:22;;;;;;;11.20;5.00;;;;;8.10;98141.20;;;;110708;1251;41167;-70
2022/05/06 03:54:03;;;;;;;;;;;;;8.10;98139.40;;;;110925;1251;41652;-69
2022/05/06 03:56:33;;;;;;;10.30;4.90;;;;;8.20;98120.80;;;;110887;1251;41160;-68
2022/05/06 03:59:06;;;;;;;8.90;4.40;;;;;8.84;98102.20;;;;110963;1251;41161;-70
2022/05/06 04:01:36;;;;;;;8.90;4.50;;;;;9.68;98102.80;;;;111050;1250;41502;-70
2022/05/06 04:04:13;;;;;;;9.90;4.10;;;;;10.56;98096.60;;;;110913;1250;41159;-68
2022/05/06 04:06:47;;;;;;;10.00;4.20;;;;;11.42;98098.20;;;;110733;1251;41148;-70
2022/05/06 04:09:21;;;;;;;8.70;4.00;;;;;12.20;98096.60;;;;110768;1250;41344;-69
2022/05/06 04:11:51;;;;;;;12.80;5.50;;;;;12.88;98093.80;;;;110924;1250;41348;-69
2022/05/06 04:14:22;;;;;;;11.10;5.20;;;;;13.50;98099.00;;;;110991;1250;41149;-67
2022/05/06 04:16:54;;;;;;;11.90;5.50;;;;;14.00;98098.60;;;;110803;1250;41931;-68
2022/05/06 04:19:31;;;;;;;11.90;5.00;;;;;14.48;98100.40;;;;111069;1250;42046;-68
2022/05/06 04:24:57;;;;;;;10.40;4.40;;;;;15.46;98099.60;;;;111020;1250;41541;-68
2022/05/06 04:27:28;;;;;;;9.60;4.00;;;;;16.00;98098.20;;;;110787;1251;42301;-70
2022/05/06 04:30:00;;;;;;;9.50;4.50;;;;;16.40;98095.00;;;;110841;1252;41741;-70
2022/05/06 04:32:39;;;;;;;12.00;4.50;;;;;16.90;98094.20;;;;110941;1250;41197;-70
2022/05/06 04:35:13;;;;;;;11.90;4.30;;;;;17.30;98096.00;;;;110902;1250;41647;-68
2022/05/06 04:37:49;;;;;;;8.90;4.00;;;;;17.70;98092.00;;;;110912;1250;41149;-71
2022/05/06 04:40:24;;;;;;;15.70;5.00;;;;;18.10;98089.00;;;;110772;1251;41162;-69
2022/05/06 04:42:53;;;;;;;11.90;4.00;;;;;18.50;98092.20;;;;110820;1251;41613;-68
2022/05/06 04:45:23;;;;;;;11.10;4.70;;;;;18.88;98090.40;;;;110913;1251;41894;-68
2022/05/06 04:48:02;;;;;;;9.40;3.70;;;;;19.20;98092.20;;;;111104;1250;41159;-69
2022/05/06 04:50:38;;;;;;;8.10;3.70;;;;;19.56;98087.20;;;;110906;1251;41306;-68
2022/05/06 04:53:10;;;;;;;9.40;4.30;;;;;19.52;98088.00;;;;110991;1250;41139;-69
2022/05/06 04:55:41;;;;;;;20.80;4.00;;;;;19.70;98091.80;;;;110773;1251;41538;-69
2022/05/06 04:58:12;;;;;;;8.50;3.60;;;;;19.90;98094.00;;;;110906;1251;41633;-68
2022/05/06 05:00:41;;;;;;;13.60;4.20;;;;;20.42;98096.60;;;;110902;1251;41409;-69
2022/05/06 05:03:10;;;;;;;11.80;4.70;;;;;20.90;98092.80;;;;110643;1251;42043;-68
2022/05/06 05:05:39;;;;;;;8.80;4.10;;;;;21.10;98095.40;;;;110941;1251;41541;-69
2022/05/06 05:08:09;;;;;;;11.50;3.80;;;;;21.30;98096.40;;;;110819;1250;41159;-69
2022/05/06 05:10:42;;;;;;;11.40;4.10;;;;;21.70;98094.00;;;;110755;1251;42326;-68
2022/05/06 05:13:12;;;;;;;9.90;3.60;;;;;22.10;98097.20;;;;111078;1250;41156;-68
2022/05/06 05:15:41;;;;;;;7.90;3.30;;;;;22.40;98095.40;;;;110933;1251;41161;-68
2022/05/06 05:18:11;;;;;;;10.10;3.60;;;;;22.70;98096.00;;;;111106;1250;41262;-69
2022/05/06 05:20:40;;;;;;;12.10;3.90;;;;;23.10;98093.80;;;;110721;1253;41157;-69
2022/05/06 05:23:09;;;;;;;7.80;3.20;;;;;23.50;98094.20;;;;111066;1251;41154;-69
2022/05/06 05:25:38;;;;;;;8.20;3.20;;;;;23.90;98095.00;;;;110967;1251;41483;-69
2022/05/06 05:28:08;;;;;;;9.60;3.10;;;;;24.20;98094.40;;;;110915;1251;41148;-66
2022/05/06 05:30:40;;;;;;;7.80;2.90;;;;;24.60;98094.00;;;;110861;1251;41173;-67
2022/05/06 05:33:11;;;;;;;9.20;3.20;;;;;24.82;98092.00;;;;111045;1251;41162;-69
2022/05/06 05:35:46;;;;;;;5.50;2.50;;;;;24.94;98086.00;;;;110987;1250;41131;-69
2022/05/06 05:38:15;;;;;;;10.10;2.90;;;;;24.72;98086.00;;;;110915;1252;42253;-69
2022/05/06 05:40:44;;;;;;;8.10;3.40;;;;;24.70;98092.60;;;;111133;1250;41917;-69
2022/05/06 05:48:53;;;;;;;10.00;3.80;;;;;24.60;98090.40;;;;110936;1250;41137;-69
2022/05/06 05:51:22;;;;;;;10.50;3.60;;;;;24.20;98084.60;;;;111120;1251;41155;-70
2022/05/06 05:53:55;;;;;;;11.40;3.90;;;;;23.78;98089.20;;;;111159;1247;41251;-69
2022/05/06 05:56:25;;;;;;;9.90;3.10;;;;;23.62;98087.40;;;;111003;1250;41254;-69
2022/05/06 05:58:54;;;;;;;6.80;3.00;;;;;23.80;98090.00;;;;110879;1251;41144;-70
2022/05/06 06:01:25;;;;;;;11.40;3.40;;;;;23.90;98087.40;;;;111116;1250;41145;-69
2022/05/06 06:03:57;;;;;;;8.90;3.40;;;;;23.98;98090.60;;;;110964;1251;41811;-71
2022/05/06 06:06:26;;;;;;;9.00;3.20;;;;;23.98;98090.40;;;;110853;1251;41323;-70
2022/05/06 06:08:56;;;;;;;7.30;2.60;;;;;23.80;98090.80;;;;111087;1250;41592;-69
2022/05/06 06:11:27;;;;;;;8.20;2.70;;;;;24.12;98093.40;;;;111003;1251;41169;-70
2022/05/06 06:13:56;;;;;;;6.30;2.50;;;;;24.60;98095.00;;;;111034;1251;42385;-70
2022/05/06 06:16:27;;;;;;;7.70;2.60;;;;;25.12;98094.60;;;;111111;1250;41158;-69
2022/05/06 06:18:58;;;;;;;7.10;2.30;;;;;25.70;98095.40;;;;110973;1251;41166;-69
2022/05/06 06:21:29;;;;;;;9.60;2.90;;;;;26.20;98087.40;;;;110933;1251;41788;-70
2022/05/06 06:23:58;;;;;;;8.10;2.70;;;;;26.40;98084.00;;;;110918;1251;41144;-70
2022/05/06 06:26:27;;;;;;;5.60;2.40;;;;;26.20;98083.20;;;;111136;1250;41134;-69
2022/05/06 06:29:01;;;;;;;7.20;2.60;;;;;26.16;98084.80;;;;111063;1250;41163;-70
2022/05/06 06:31:31;;;;;;;7.60;3.00;;;;;26.40;98089.00;;;;110915;1251;41208;-71
2022/05/06 06:34:02;;;;;;;6.70;2.30;;;;;26.54;98090.60;;;;111112;1251;41147;-70
2022/05/06 06:36:36;;;;;;;5.70;2.30;;;;;26.84;98091.80;;;;111004;1251;40715;-70
2022/05/06 06:39:05;;;;;;;6.10;1.90;;;;;27.40;98095.40;;;;110988;1250;42368;-70
2022/05/06 06:41:38;;;;;;;7.50;2.20;;;;;27.80;98096.40;;;;110875;1251;41152;-69
2022/05/06 06:44:07;;;;;;;7.20;2.40;;;;;28.30;98095.40;;;;111020;1250;41475;-69
2022/05/06 06:46:55;;;;;;;5.30;1.90;;;;;28.50;98094.60;;;;110946;1251;41131;-70
2022/05/06 06:49:43;;;;;;;5.30;2.10;;;;;28.58;98093.80;;;;111074;1250;41556;-70
2022/05/06 06:52:24;;;;;;;6.70;2.60;;;;;28.84;98092.40;;;;110797;1251;41713;-70
2022/05/06 06:54:53;;;;;;;6.80;2.50;;;;;28.72;98094.20;;;;111127;1250;41317;-71
2022/05/06 06:57:22;;;;;;;5.80;2.10;;;;;28.78;98096.00;;;;111001;1250;42376;-70
2022/05/06 06:59:50;;;;;;;7.50;2.40;;;;;28.54;98099.40;;;;111164;1250;41180;-71
2022/05/06 07:02:20;;;;;;;7.10;2.40;;;;;28.66;98100.40;;;;111113;1250;41157;-69
2022/05/06 07:04:51;;;;;;;7.00;2.80;;;;;28.68;98098.00;;;;111008;1250;41178;-70
2022/05/06 07:12:56;;;;;;;7.10;2.50;;;;;27.16;98090.80;;;;111140;1248;41232;-71
2022/05/06 07:15:29;;;;;;;6.60;2.50;;;;;27.34;98092.00;;;;110957;1250;41131;-70
2022/05/06 07:17:59;;;;;;;6.20;2.50;;;;;26.94;98091.40;;;;111119;1250;42275;-69
2022/05/06 07:20:28;;;;;;;5.20;2.20;;;;;27.00;98088.80;;;;111105;1250;41269;-70
2022/05/06 07:22:57;;;;;;;5.20;2.10;;;;;27.08;98090.40;;;;111143;1250;41135;-70
2022/05/06 07:25:27;;;;;;;6.50;2.30;;;;;27.80;98085.00;;;;111003;1250;41835;-69
2022/05/06 07:27:56;;;;;;;5.20;2.10;;;;;28.60;98082.60;;;;110974;1252;41550;-70
2022/05/06 07:30:25;;;;;;;7.60;2.80;;;;;29.20;98080.60;;;;110967;1250;41144;-70
2022/05/06 07:32:54;;;;;;;8.50;3.10;;;;;28.94;98078.60;;;;111114;1251;41184;-70
2022/05/06 07:35:24;;;;;;;7.60;2.40;;;;;28.16;98082.00;;;;111176;1248;41582;-70
2022/05/06 07:37:52;;;;;;;6.40;2.80;;;;;27.32;98088.20;;;;110889;1250;41263;-70
2022/05/06 07:40:21;;;;;;;6.70;2.40;;;;;26.90;98088.00;;;;110900;1250;41898;-70
2022/05/06 07:42:51;;;;;;;6.60;2.30;;;;;26.22;98086.60;;;;111112;1248;41143;-70
2022/05/06 07:45:21;;;;;;;8.70;2.40;;;;;26.50;98089.20;;;;111172;1247;41700;-70
2022/05/06 07:47:50;;;;;;;10.00;2.60;;;;;26.52;98088.20;;;;111130;1250;41666;-70
2022/05/06 07:50:26;;;;;;;6.10;2.30;;;;;27.10;98087.40;;;;110930;1250;41544;-69
2022/05/06 07:52:55;;;;;;;4.00;1.90;;;;;27.94;98088.60;;;;111142;1250;41157;-70
2022/05/06 07:55:24;;;;;;;6.50;2.10;;;;;29.02;98076.20;;;;111129;1250;41636;-70
2022/05/06 07:57:54;;;;;;;5.60;2.10;;;;;29.78;98073.40;;;;111175;1250;41150;-71
2022/05/06 08:00:26;;;;;;;4.90;2.30;;;;;30.56;98067.60;;;;110896;1251;41169;-69
2022/05/06 08:05:46;;;;;;;9.60;2.80;;;;;29.80;98069.40;;;;111076;1250;42237;-70
2022/05/06 08:08:15;;;;;;;7.50;2.60;;;;;29.00;98073.20;;;;110925;1250;41146;-70
2022/05/06 08:10:44;;;;;;;5.00;2.10;;;;;28.64;98072.00;;;;111124;1250;41178;-71
2022/05/06 08:13:14;;;;;;;8.20;2.40;;;;;29.20;98068.00;;;;111109;1250;41217;-70
2022/05/06 08:15:49;;;;;;;6.40;2.30;;;;;29.06;98068.00;;;;111091;1250;41168;-70
2022/05/06 08:18:19;;;;;;;6.20;2.30;;;;;29.14;98072.00;;;;111114;1249;41497;-70
2022/05/06 08:20:47;;;;;;;6.80;2.20;;;;;29.70;98069.20;;;;110932;1251;41322;-71
2022/05/06 08:23:16;;;;;;;6.40;2.30;;;;;30.40;98071.40;;;;110849;1251;42380;-70
2022/05/06 08:25:47;;;;;;;6.20;2.40;;;;;30.70;98073.80;;;;110966;1252;42294;-71
2022/05/06 08:28:19;;;;;;;6.40;2.20;;;;;30.42;98073.00;;;;110789;1252;41144;-70
2022/05/06 08:30:48;;;;;;;6.60;2.30;;;;;30.52;98074.20;;;;110787;1252;41219;-70
2022/05/06 08:33:19;;;;;;;6.20;2.30;;;;;30.90;98067.00;;;;110809;1251;41166;-70
2022/05/06 08:35:48;;;;;;;11.10;2.20;;;;;31.10;98065.00;;;;110931;1252;41900;-70
2022/05/06 08:38:17;;;;;;;7.10;2.30;;;;;31.02;98064.40;;;;110920;1251;41166;-71
2022/05/06 08:40:48;;;;;;;5.80;2.20;;;;;29.96;98058.80;;;;110850;1251;41138;-72
2022/05/06 08:43:17;;;;;;;3.50;1.80;;;;;30.30;98058.80;;;;110978;1251;41155;-71
2022/05/06 08:51:35;;;;;;;6.40;2.40;;;;;30.60;98054.80;;;;111007;1252;41543;-71
2022/05/06 08:54:05;;;;;;;6.60;2.30;;;;;30.50;98055.20;;;;110966;1252;41176;-71
2022/05/06 08:56:34;;;;;;;5.50;2.20;;;;;30.30;98051.20;;;;110915;1251;41272;-71
2022/05/06 08:59:03;;;;;;;4.80;2.20;;;;;30.56;98051.20;;;;110915;1251;41180;-70
2022/05/06 09:01:32;;;;;;;7.20;2.70;;;;;31.32;98052.20;;;;110984;1251;41279;-71
2022/05/06 09:04:01;;;;;;;7.70;2.50;;;;;31.26;98048.40;;;;110904;1252;41135;-70
2022/05/06 09:06:32;;;;;;;6.60;2.60;;;;;30.70;98041.60;;;;111112;1250;42311;-70
2022/05/06 09:09:01;;;;;;;;;;;;;30.56;98046.80;;;;111095;1249;41359;-71
2022/05/06 09:16:39;;;;;;;5.00;2.00;;;;;30.30;98046.00;;;;110979;1250;42202;-71
2022/05/06 09:17:21;;;;;;;7.70;2.90;;;;;30.78;98051.00;;;;111109;1249;41605;-71
2022/05/06 09:19:51;;;;;;;6.70;2.50;;;;;29.80;98051.60;;;;111115;1250;41294;-71
2022/05/06 09:22:20;;;;;;;7.00;2.20;;;;;29.30;98057.40;;;;110940;1250;41447;-70
2022/05/06 09:24:50;;;;;;;6.20;2.60;;;;;29.02;98058.60;;;;111092;1250;41611;-70
2022/05/06 09:27:21;;;;;;;8.70;2.60;;;;;28.86;98054.80;;;;111110;1250;41159;-71
2022/05/06 09:29:54;;;;;;;6.70;2.50;;;;;29.00;98053.80;;;;111118;1248;41206;-70
2022/05/06 09:32:28;;;;;;;5.20;2.10;;;;;28.90;98049.40;;;;110947;1250;41941;-71
2022/05/06 09:35:12;;;;;;;5.90;2.30;;;;;29.38;98053.60;;;;110959;1250;41143;-70
2022/05/06 09:37:45;;;;;;;8.10;2.50;;;;;29.66;98041.40;;;;111025;1251;41133;-71
2022/05/06 09:40:16;;;;;;;7.80;2.60;;;;;29.20;98046.00;;;;111145;1250;41993;-71
2022/05/06 09:43:06;;;;;;;6.40;2.10;;;;;28.82;98043.40;;;;111210;1250;41818;-70
2022/05/06 09:45:40;;;;;;;5.80;2.20;;;;;28.92;98041.80;;;;111135;1250;41431;-71
2022/05/06 09:48:12;;;;;;;4.80;1.80;;;;;28.80;98033.40;;;;111174;1248;41371;-70
2022/05/06 09:50:48;;;;;;;6.50;2.10;;;;;28.72;98032.20;;;;111132;1250;41309;-70
2022/05/06 09:53:23;;;;;;;4.40;1.90;;;;;28.94;98035.00;;;;111117;1250;41159;-71
2022/05/06 09:55:51;;;;;;;5.10;2.00;;;;;29.04;98031.80;;;;111079;1249;41327;-70
2022/05/06 09:58:24;;;;;;;4.80;2.30;;;;;29.48;98033.80;;;;110491;1250;567669;-70
2022/05/06 10:00:53;;;;;;;6.00;2.10;;;;;29.90;98028.40;;;;111037;1250;41943;-70
2022/05/06 10:03:23;;;;;;;8.10;2.40;;;;;30.40;98029.40;;;;111093;1249;41140;-70
2022/05/06 10:05:52;;;;;;;9.10;2.90;;;;;30.60;98023.00;;;;110996;1251;41138;-70
2022/05/06 10:08:21;;;;;;;6.40;2.30;;;;;30.20;98021.40;;;;110906;1251;41273;-71
2022/05/06 10:10:59;;;;;;;4.00;1.80;;;;;29.80;98016.60;;;;110891;1251;41275;-70
2022/05/06 10:13:30;;;;;;;8.80;2.40;;;;;29.92;98017.00;;;;110994;1250;41868;-71
2022/05/06 10:15:59;;;;;;;5.10;2.20;;;;;30.36;98015.40;;;;110902;1251;41928;-70
2022/05/06 10:18:31;;;;;;;4.50;1.80;;;;;30.40;98009.60;;;;110868;1253;42358;-71
2022/05/06 10:21:07;;;;;;;8.80;2.50;;;;;30.96;98009.20;;;;110962;1251;41115;-71
2022/05/06 10:23:50;;;;;;;6.30;2.40;;;;;30.02;98010.40;;;;111015;1250;41143;-71
2022/05/06 10:26:43;;;;;;;9.50;2.70;;;;;28.56;98022.20;;;;111087;1250;41809;-70
2022/05/06 10:32:25;;;;;;;5.80;2.40;;;;;28.60;98010.20;;;;111043;1250;41180;-71
2022/05/06 10:35:05;;;;;;;6.20;2.60;;;;;29.00;98008.20;;;;110927;1250;41146;-71
2022/05/06 10:37:37;;;;;;;6.40;2.40;;;;;28.80;97999.80;;;;111122;1249;41178;-73
2022/05/06 10:40:24;;;;;;;7.10;2.00;;;;;28.66;97996.20;;;;111016;1250;41607;-71
2022/05/06 10:42:53;;;;;;;6.10;2.20;;;;;28.60;97993.00;;;;111042;1250;41663;-71
2022/05/06 10:45:23;;;;;;;6.20;2.20;;;;;28.80;97990.20;;;;110973;1249;41942;-71
2022/05/06 10:47:53;;;;;;;6.20;2.60;;;;;29.22;97987.20;;;;110838;1251;42340;-72
2022/05/06 10:50:24;;;;;;;6.80;2.20;;;;;29.10;97989.20;;;;111023;1250;41146;-72
2022/05/06 10:53:00;;;;;;;6.20;2.30;;;;;28.40;97991.00;;;;110991;1250;41623;-70
2022/05/06 10:55:29;;;;;;;4.60;1.90;;;;;28.20;97984.60;;;;110971;1250;41164;-70
2022/05/06 10:58:00;;;;;;;4.70;2.10;;;;;28.58;97986.80;;;;110828;1248;41163;-71
2022/05/06 11:00:30;;;;;;;5.10;2.20;;;;;28.70;97974.40;;;;111011;1250;42525;-70
2022/05/06 11:02:59;;;;;;;5.50;2.10;;;;;29.06;97979.00;;;;110941;1251;41260;-70
2022/05/06 11:05:29;;;;;;;6.70;2.60;;;;;29.16;97977.00;;;;110854;1252;41457;-71
2022/05/06 11:08:00;;;;;;;5.70;2.40;;;;;29.28;97970.60;;;;110753;1251;41151;-71
2022/05/06 11:10:31;;;;;;;6.20;2.50;;;;;29.02;97968.40;;;;111006;1251;40744;-71
2022/05/06 11:13:23;;;;;;;4.50;1.80;;;;;28.70;97966.00;;;;111044;1251;41724;-70
2022/05/06 11:15:55;;;;;;;5.20;2.20;;;;;29.10;97964.80;;;;110797;1252;41148;-71
2022/05/06 11:18:25;;;;;;;6.50;2.60;;;;;29.62;97964.40;;;;110987;1251;41158;-70
2022/05/06 11:20:54;;;;;;;7.30;2.10;;;;;29.68;97960.60;;;;110886;1251;41596;-71
2022/05/06 11:23:28;;;;;;;6.10;2.20;;;;;29.30;97965.60;;;;110762;1251;41796;-70
2022/05/06 11:25:58;;;;;;;4.60;1.90;;;;;29.50;97966.00;;;;110923;1250;41263;-70
2022/05/06 11:28:30;;;;;;;4.70;2.10;;;;;29.92;97958.80;;;;110879;1249;42331;-71
2022/05/06 11:31:00;;;;;;;5.30;1.90;;;;;30.20;97956.80;;;;110954;1251;41825;-70
2022/05/06 11:33:33;;;;;;;5.20;2.10;;;;;30.42;97952.20;;;;110764;1251;41385;-71
2022/05/06 11:36:04;;;;;;;5.00;2.10;;;;;30.58;97949.60;;;;110855;1251;41448;-72
2022/05/06 11:38:41;;;;;;;7.20;2.20;;;;;30.80;97952.40;;;;110841;1251;41608;-71
2022/05/06 11:41:12;;;;;;;4.20;1.90;;;;;30.70;97951.60;;;;110872;1251;40770;-70
2022/05/06 11:43:43;;;;;;;4.80;2.00;;;;;30.66;97951.40;;;;110851;1248;41702;-70
2022/05/06 11:49:08;;;;;;;4.20;1.90;;;;;30.54;97945.20;;;;110815;1252;41923;-70
2022/05/06 11:51:39;;;;;;;4.90;1.90;;;;;30.30;97945.00;;;;110765;1251;41134;-70
2022/05/06 11:54:09;;;;;;;5.20;2.20;;;;;30.40;97942.20;;;;110843;1251;41958;-70
2022/05/06 11:56:39;;;;;;;5.30;2.20;;;;;30.74;97949.60;;;;110812;1251;41162;-70
2022/05/06 11:59:10;;;;;;;5.30;2.00;;;;;30.88;97945.60;;;;110899;1250;41194;-70
2022/05/06 12:01:41;;;;;;;5.40;2.00;;;;;30.50;97939.40;;;;110779;1251;41269;-70
2022/05/06 12:04:11;;;;;;;7.50;2.40;;;;;30.40;97939.00;;;;110795;1251;41259;-70
2022/05/06 12:06:49;;;;;;;5.20;2.20;;;;;30.36;97939.20;;;;110492;1252;41153;-70
2022/05/06 12:09:24;;;;;;;8.30;2.30;;;;;30.10;97933.60;;;;110726;1251;41987;-72
2022/05/06 12:12:07;;;;;;;4.50;1.90;;;;;29.70;97930.60;;;;110748;1251;41145;-72
2022/05/06 12:14:38;;;;;;;5.10;2.10;;;;;29.48;97930.00;;;;110952;1250;41164;-72
2022/05/06 12:17:12;;;;;;;8.20;2.00;;;;;29.40;97934.00;;;;110566;1252;42567;-69
2022/05/06 12:19:44;;;;;;;5.90;2.10;;;;;29.26;97928.00;;;;110750;1251;41276;-71
2022/05/06 12:22:27;;;;;;;4.60;2.00;;;;;29.34;97925.00;;;;110692;1253;41167;-71
2022/05/06 12:24:58;;;;;;;5.40;2.20;;;;;29.30;97920.80;;;;110855;1251;41158;-69
2022/05/06 12:27:33;;;;;;;4.30;1.90;;;;;28.96;97925.20;;;;110733;1252;41311;-70
2022/05/06 12:30:03;;;;;;;5.50;1.80;;;;;29.06;97919.60;;;;110795;1251;41147;-71
2022/05/06 12:32:32;;;;;;;5.50;1.80;;;;;29.26;97917.60;;;;110825;1251;41285;-72
2022/05/06 12:35:08;;;;;;;5.00;2.10;;;;;29.50;97916.60;;;;110850;1251;42255;-71
2022/05/06 12:37:54;;;;;;;4.70;2.10;;;;;29.60;97907.80;;;;110847;1251;41158;-69
2022/05/06 12:40:33;;;;;;;6.20;2.00;;;;;29.78;97903.40;;;;110727;1252;41206;-70
2022/05/06 12:43:03;;;;;;;5.80;2.10;;;;;29.94;97904.00;;;;110774;1250;41161;-71
2022/05/06 12:45:32;;;;;;;5.60;1.90;;;;;29.90;97902.00;;;;110802;1252;41196;-71
2022/05/06 12:50:48;;;;;;;5.20;2.20;;;;;29.74;97898.80;;;;110842;1251;41286;-71
2022/05/06 12:53:19;;;;;;;5.10;2.00;;;;;29.76;97896.40;;;;110780;1251;41780;-71
2022/05/06 12:55:48;;;;;;;7.30;2.40;;;;;29.80;97889.20;;;;110687;1252;41348;-71
2022/05/06 12:58:17;;;;;;;7.10;2.50;;;;;29.80;97886.60;;;;110693;1251;41266;-72
2022/05/06 13:00:49;;;;;;;5.50;2.10;;;;;29.70;97884.00;;;;110936;1251;41529;-71
2022/05/06 13:03:18;;;;;;;5.40;2.10;;;;;29.80;97884.80;;;;110908;1251;41679;-72
2022/05/06 13:05:48;;;;;;;9.30;2.40;;;;;29.80;97879.00;;;;110934;1249;41165;-71
2022/05/06 13:08:16;;;;;;;4.90;2.10;;;;;29.84;97881.00;;;;110846;1250;41429;-71
2022/05/06 13:10:46;;;;;;;5.70;2.30;;;;;29.90;97879.60;;;;110912;1250;41147;-71
2022/05/06 13:13:16;;;;;;;9.00;2.80;;;;;29.80;97879.00;;;;111037;1249;41355;-71
2022/05/06 13:15:45;;;;;;;7.20;2.50;;;;;29.70;97881.00;;;;110938;1250;41601;-70